PRIVATE WETTERSTATION BILLIGHEIM-ALLFELD                       ZURCK
Wetterdaten: Mittwoch, 20.07.2016
Datum Zeit Temp. A. Temp. A. min Temp. A. max Feuchte A. Luftdruck Regen Wind Richtung Richtung Sonnenschein ET Solar Taupunkt Windchill Windben Empfang
20.07.2016 00:00 21,9 C 21,9 C 22,1 C 65 % 1016,8 hPa 0,0 l/m 0,0 km/h (0 Bft) N 360 0 min 0,051 mm 0 W/m 15,0 C 21,9 C 4,8 km/h (1 Bft) 100 %
20.07.2016 00:10 21,8 C 21,8 C 21,9 C 64 % 1016,7 hPa 0,0 l/m 0,0 km/h (0 Bft) O-NO 67 0 min 0,000 mm 0 W/m 14,7 C 21,8 C 4,8 km/h (1 Bft) 100 %
20.07.2016 00:20 21,7 C 21,7 C 21,8 C 65 % 1016,7 hPa 0,0 l/m 1,6 km/h (1 Bft) O-SO 112 0 min 0,000 mm 0 W/m 14,8 C 21,7 C 9,7 km/h (2 Bft) 100 %
20.07.2016 00:30 21,6 C 21,6 C 21,7 C 65 % 1016,6 hPa 0,0 l/m 0,0 km/h (0 Bft) O 90 0 min 0,000 mm 0 W/m 14,7 C 21,6 C 8,0 km/h (2 Bft) 100 %
20.07.2016 00:40 21,3 C 21,3 C 21,6 C 68 % 1016,7 hPa 0,0 l/m 0,0 km/h (0 Bft) O-NO 67 0 min 0,000 mm 0 W/m 15,1 C 21,3 C 3,2 km/h (1 Bft) 100 %
20.07.2016 00:50 20,9 C 20,9 C 21,3 C 68 % 1016,6 hPa 0,0 l/m 0,0 km/h (0 Bft) O 90 0 min 0,000 mm 0 W/m 14,8 C 20,9 C 1,6 km/h (1 Bft) 100 %
20.07.2016 01:00 20,6 C 20,6 C 20,9 C 71 % 1016,6 hPa 0,0 l/m 0,0 km/h (0 Bft) O 90 0 min 0,025 mm 0 W/m 15,2 C 20,6 C 1,6 km/h (1 Bft) 100 %
20.07.2016 01:10 20,1 C 20,1 C 20,6 C 72 % 1016,6 hPa 0,0 l/m 0,0 km/h (0 Bft) O 90 0 min 0,000 mm 0 W/m 14,9 C 20,1 C 1,6 km/h (1 Bft) 100 %
20.07.2016 01:20 19,7 C 19,7 C 20,1 C 73 % 1016,6 hPa 0,0 l/m 0,0 km/h (0 Bft) O-NO 67 0 min 0,000 mm 0 W/m 14,7 C 19,7 C 1,6 km/h (1 Bft) 100 %
20.07.2016 01:30 19,4 C 19,4 C 19,7 C 75 % 1016,6 hPa 0,0 l/m 0,0 km/h (0 Bft) SO 135 0 min 0,000 mm 0 W/m 14,8 C 19,4 C 4,8 km/h (1 Bft) 100 %
20.07.2016 01:40 19,2 C 19,2 C 19,4 C 77 % 1016,5 hPa 0,0 l/m 0,0 km/h (0 Bft) N 360 0 min 0,000 mm 0 W/m 15,1 C 19,2 C 9,7 km/h (2 Bft) 100 %
20.07.2016 01:50 18,8 C 18,8 C 19,2 C 78 % 1016,6 hPa 0,0 l/m 0,0 km/h (0 Bft) N 360 0 min 0,000 mm 0 W/m 14,9 C 18,8 C 4,8 km/h (1 Bft) 100 %
20.07.2016 02:00 18,3 C 18,3 C 18,8 C 80 % 1016,5 hPa 0,0 l/m 0,0 km/h (0 Bft) N-NW 337 0 min 0,025 mm 0 W/m 14,8 C 18,3 C 4,8 km/h (1 Bft) 100 %
20.07.2016 02:10 17,8 C 17,8 C 18,3 C 82 % 1016,5 hPa 0,0 l/m 0,0 km/h (0 Bft) N-NW 337 0 min 0,000 mm 0 W/m 14,7 C 17,8 C 4,8 km/h (1 Bft) 100 %
20.07.2016 02:20 17,5 C 17,5 C 17,8 C 83 % 1016,4 hPa 0,0 l/m 0,0 km/h (0 Bft) N-NW 337 0 min 0,000 mm 0 W/m 14,6 C 17,5 C 4,8 km/h (1 Bft) 99 %
20.07.2016 02:30 17,3 C 17,3 C 17,5 C 83 % 1016,4 hPa 0,0 l/m 0,0 km/h (0 Bft) N-NW 337 0 min 0,000 mm 0 W/m 14,4 C 17,3 C 1,6 km/h (1 Bft) 99 %
20.07.2016 02:40 17,2 C 17,2 C 17,3 C 83 % 1016,3 hPa 0,0 l/m 1,6 km/h (1 Bft) N 360 0 min 0,000 mm 0 W/m 14,3 C 17,2 C 8,0 km/h (2 Bft) 100 %
20.07.2016 02:50 17,2 C 17,2 C 17,2 C 84 % 1016,3 hPa 0,0 l/m 0,0 km/h (0 Bft) N 360 0 min 0,000 mm 0 W/m 14,5 C 17,2 C 1,6 km/h (1 Bft) 100 %
20.07.2016 03:00 17,1 C 17,1 C 17,2 C 84 % 1016,4 hPa 0,0 l/m 0,0 km/h (0 Bft) N 360 0 min 0,025 mm 0 W/m 14,4 C 17,1 C 1,6 km/h (1 Bft) 100 %
20.07.2016 03:10 16,9 C 16,9 C 17,1 C 84 % 1016,3 hPa 0,0 l/m 1,6 km/h (1 Bft) N-NW 337 0 min 0,000 mm 0 W/m 14,2 C 16,9 C 6,4 km/h (2 Bft) 100 %
20.07.2016 03:20 16,8 C 16,8 C 16,9 C 85 % 1016,3 hPa 0,0 l/m 0,0 km/h (0 Bft) N-NW 337 0 min 0,000 mm 0 W/m 14,3 C 16,8 C 6,4 km/h (2 Bft) 100 %
20.07.2016 03:30 16,7 C 16,7 C 16,8 C 85 % 1016,3 hPa 0,0 l/m 0,0 km/h (0 Bft) N-NW 337 0 min 0,000 mm 0 W/m 14,2 C 16,7 C 1,6 km/h (1 Bft) 100 %
20.07.2016 03:40 16,7 C 16,7 C 16,7 C 84 % 1016,3 hPa 0,0 l/m 0,0 km/h (0 Bft) N 0 0 min 0,000 mm 0 W/m 14,0 C 16,7 C 0,0 km/h (0 Bft) 100 %
20.07.2016 03:50 16,7 C 16,7 C 16,8 C 84 % 1016,2 hPa 0,0 l/m 0,0 km/h (0 Bft) N-NW 337 0 min 0,000 mm 0 W/m 14,0 C 16,7 C 1,6 km/h (1 Bft) 100 %
20.07.2016 04:00 16,7 C 16,7 C 16,8 C 84 % 1016,1 hPa 0,0 l/m 0,0 km/h (0 Bft) N 0 0 min 0,025 mm 0 W/m 14,0 C 16,7 C 0,0 km/h (0 Bft) 100 %
20.07.2016 04:10 16,7 C 16,7 C 16,8 C 84 % 1016,1 hPa 0,0 l/m 0,0 km/h (0 Bft) N-NW 337 0 min 0,000 mm 0 W/m 14,0 C 16,7 C 1,6 km/h (1 Bft) 100 %
20.07.2016 04:20 16,7 C 16,7 C 16,7 C 84 % 1016,0 hPa 0,0 l/m 0,0 km/h (0 Bft) N-NW 337 0 min 0,000 mm 0 W/m 14,0 C 16,7 C 1,6 km/h (1 Bft) 100 %
20.07.2016 04:30 16,7 C 16,7 C 16,7 C 84 % 1016,0 hPa 0,0 l/m 0,0 km/h (0 Bft) N 360 0 min 0,000 mm 0 W/m 14,0 C 16,7 C 1,6 km/h (1 Bft) 100 %
20.07.2016 04:40 16,7 C 16,7 C 16,7 C 83 % 1016,0 hPa 0,0 l/m 0,0 km/h (0 Bft) N 0 0 min 0,000 mm 0 W/m 13,8 C 16,7 C 0,0 km/h (0 Bft) 100 %
20.07.2016 04:50 16,6 C 16,6 C 16,7 C 84 % 1016,0 hPa 0,0 l/m 0,0 km/h (0 Bft) N 360 0 min 0,000 mm 0 W/m 13,9 C 16,6 C 4,8 km/h (1 Bft) 100 %
20.07.2016 05:00 16,5 C 16,5 C 16,6 C 84 % 1016,0 hPa 0,0 l/m 0,0 km/h (0 Bft) N 360 0 min 0,025 mm 0 W/m 13,8 C 16,5 C 4,8 km/h (1 Bft) 100 %
20.07.2016 05:10 16,4 C 16,4 C 16,5 C 85 % 1016,0 hPa 0,0 l/m 0,0 km/h (0 Bft) N 0 0 min 0,000 mm 0 W/m 13,9 C 16,4 C 0,0 km/h (0 Bft) 88 %
20.07.2016 05:20 16,2 C 16,2 C 16,4 C 85 % 1016,0 hPa 0,0 l/m 0,0 km/h (0 Bft) N 360 0 min 0,000 mm 0 W/m 13,7 C 16,2 C 1,6 km/h (1 Bft) 100 %
20.07.2016 05:30 15,9 C 15,9 C 16,2 C 85 % 1016,0 hPa 0,0 l/m 0,0 km/h (0 Bft) N 360 0 min 0,000 mm 0 W/m 13,4 C 15,9 C 1,6 km/h (1 Bft) 99 %
20.07.2016 05:40 15,8 C 15,8 C 15,9 C 86 % 1015,9 hPa 0,0 l/m 0,0 km/h (0 Bft) N 360 0 min 0,000 mm 0 W/m 13,5 C 15,8 C 1,6 km/h (1 Bft) 100 %
20.07.2016 05:50 15,7 C 15,7 C 15,8 C 86 % 1015,8 hPa 0,0 l/m 0,0 km/h (0 Bft) N 360 0 min 0,000 mm 5 W/m 13,4 C 15,7 C 1,6 km/h (1 Bft) 100 %
20.07.2016 06:00 15,6 C 15,6 C 15,7 C 86 % 1016,0 hPa 0,0 l/m 0,0 km/h (0 Bft) N 360 0 min 0,000 mm 9 W/m 13,3 C 15,6 C 1,6 km/h (1 Bft) 100 %
20.07.2016 06:10 15,5 C 15,5 C 15,6 C 87 % 1015,8 hPa 0,0 l/m 0,0 km/h (0 Bft) N 360 0 min 0,000 mm 12 W/m 13,3 C 15,5 C 1,6 km/h (1 Bft) 100 %
20.07.2016 06:20 15,4 C 15,4 C 15,5 C 87 % 1015,8 hPa 0,0 l/m 0,0 km/h (0 Bft) N 360 0 min 0,000 mm 14 W/m 13,2 C 15,4 C 1,6 km/h (1 Bft) 100 %
20.07.2016 06:30 15,4 C 15,4 C 15,5 C 87 % 1016,0 hPa 0,0 l/m 0,0 km/h (0 Bft) N-NW 348 0 min 0,000 mm 18 W/m 13,2 C 15,4 C 0,0 km/h (0 Bft) 100 %
20.07.2016 06:40 15,4 C 15,4 C 15,4 C 87 % 1015,9 hPa 0,0 l/m 0,0 km/h (0 Bft) N-NW 348 0 min 0,000 mm 19 W/m 13,2 C 15,4 C 1,6 km/h (1 Bft) 100 %
20.07.2016 06:50 15,5 C 15,4 C 15,5 C 87 % 1015,9 hPa 0,0 l/m 0,0 km/h (0 Bft) N-NW 348 0 min 0,000 mm 21 W/m 13,3 C 15,5 C 1,6 km/h (1 Bft) 91 %
20.07.2016 07:00 15,6 C 15,5 C 15,6 C 87 % 1015,9 hPa 0,0 l/m 0,0 km/h (0 Bft) N-NW 348 0 min 0,000 mm 23 W/m 13,4 C 15,6 C 0,0 km/h (0 Bft) 100 %
20.07.2016 07:10 15,7 C 15,6 C 15,7 C 87 % 1015,7 hPa 0,0 l/m 0,0 km/h (0 Bft) N-NW 348 0 min 0,000 mm 25 W/m 13,5 C 15,7 C 1,6 km/h (1 Bft) 100 %
20.07.2016 07:20 15,8 C 15,7 C 15,8 C 88 % 1015,8 hPa 0,0 l/m 0,0 km/h (0 Bft) N-NW 348 0 min 0,000 mm 26 W/m 13,8 C 15,8 C 1,6 km/h (1 Bft) 100 %
20.07.2016 07:30 16,1 C 15,8 C 16,1 C 88 % 1015,8 hPa 0,0 l/m 0,0 km/h (0 Bft) N-NW 348 0 min 0,000 mm 30 W/m 14,1 C 16,1 C 0,0 km/h (0 Bft) 100 %
20.07.2016 07:40 16,2 C 16,1 C 16,2 C 88 % 1015,8 hPa 0,0 l/m 0,0 km/h (0 Bft) N-NW 348 0 min 0,000 mm 32 W/m 14,2 C 16,2 C 1,6 km/h (1 Bft) 100 %
20.07.2016 07:50 16,4 C 16,2 C 16,4 C 88 % 1015,7 hPa 0,0 l/m 0,0 km/h (0 Bft) N-NW 348 0 min 0,000 mm 33 W/m 14,4 C 16,4 C 0,0 km/h (0 Bft) 100 %
20.07.2016 08:00 16,8 C 16,4 C 16,8 C 87 % 1015,5 hPa 0,0 l/m 0,0 km/h (0 Bft) N-NW 348 0 min 0,000 mm 35 W/m 14,6 C 16,8 C 0,0 km/h (0 Bft) 100 %
20.07.2016 08:10 17,3 C 16,8 C 17,3 C 87 % 1015,5 hPa 0,0 l/m 0,0 km/h (0 Bft) N-NW 348 0 min 0,000 mm 40 W/m 15,1 C 17,3 C 0,0 km/h (0 Bft) 100 %
20.07.2016 08:20 17,8 C 17,3 C 17,8 C 86 % 1015,6 hPa 0,0 l/m 0,0 km/h (0 Bft) N-NW 348 10 min 0,000 mm 174 W/m 15,4 C 17,8 C 0,0 km/h (0 Bft) 100 %
20.07.2016 08:30 18,6 C 17,8 C 18,6 C 84 % 1015,6 hPa 0,0 l/m 0,0 km/h (0 Bft) N-NW 348 10 min 0,000 mm 374 W/m 15,8 C 18,6 C 1,6 km/h (1 Bft) 100 %
20.07.2016 08:40 19,8 C 18,6 C 19,8 C 80 % 1015,6 hPa 0,0 l/m 0,0 km/h (0 Bft) N-NW 348 10 min 0,000 mm 404 W/m 16,2 C 19,8 C 0,0 km/h (0 Bft) 100 %
20.07.2016 08:50 21,1 C 19,8 C 21,1 C 78 % 1015,6 hPa 0,0 l/m 0,0 km/h (0 Bft) N-NW 348 10 min 0,000 mm 436 W/m 17,1 C 21,1 C 1,6 km/h (1 Bft) 100 %
20.07.2016 09:00 22,1 C 21,1 C 22,1 C 72 % 1015,5 hPa 0,0 l/m 0,0 km/h (0 Bft) N-NW 348 10 min 0,129 mm 464 W/m 16,8 C 22,1 C 0,0 km/h (0 Bft) 99 %
20.07.2016 09:10 22,9 C 22,1 C 22,9 C 71 % 1015,5 hPa 0,0 l/m 0,0 km/h (0 Bft) N-NW 348 10 min 0,000 mm 492 W/m 17,4 C 22,9 C 0,0 km/h (0 Bft) 99 %
20.07.2016 09:20 23,8 C 22,9 C 23,8 C 69 % 1015,5 hPa 0,0 l/m 0,0 km/h (0 Bft) N-NW 348 10 min 0,000 mm 519 W/m 17,8 C 23,8 C 1,6 km/h (1 Bft) 100 %
20.07.2016 09:30 24,4 C 23,8 C 24,4 C 69 % 1015,3 hPa 0,0 l/m 0,0 km/h (0 Bft) N 360 10 min 0,000 mm 550 W/m 18,3 C 24,4 C 1,6 km/h (1 Bft) 100 %
20.07.2016 09:40 25,1 C 24,4 C 25,1 C 64 % 1015,3 hPa 0,0 l/m 0,0 km/h (0 Bft) O 80 10 min 0,000 mm 577 W/m 17,8 C 25,1 C 1,6 km/h (1 Bft) 100 %
20.07.2016 09:50 25,8 C 25,1 C 25,8 C 63 % 1015,4 hPa 0,0 l/m 0,0 km/h (0 Bft) NO 48 10 min 0,000 mm 598 W/m 18,2 C 25,8 C 1,6 km/h (1 Bft) 99 %
20.07.2016 10:00 26,1 C 25,8 C 26,1 C 59 % 1015,3 hPa 0,0 l/m 0,0 km/h (0 Bft) O 92 10 min 0,330 mm 624 W/m 17,4 C 26,1 C 1,6 km/h (1 Bft) 100 %
20.07.2016 10:10 27,0 C 26,1 C 27,0 C 56 % 1015,2 hPa 0,0 l/m 0,3 km/h (0 Bft) O-SO 119 10 min 0,000 mm 606 W/m 17,5 C 27,0 C 6,4 km/h (2 Bft) 100 %
20.07.2016 10:20 27,4 C 27,0 C 27,4 C 58 % 1015,1 hPa 0,0 l/m 0,0 km/h (0 Bft) O-SO 118 10 min 0,000 mm 652 W/m 18,4 C 27,4 C 1,6 km/h (1 Bft) 100 %
20.07.2016 10:30 27,9 C 27,4 C 27,9 C 54 % 1015,1 hPa 0,0 l/m 2,2 km/h (1 Bft) S-SO 150 10 min 0,000 mm 668 W/m 17,7 C 27,9 C 14,5 km/h (3 Bft) 100 %
20.07.2016 10:40 28,4 C 27,9 C 28,4 C 57 % 1015,0 hPa 0,0 l/m 0,7 km/h (0 Bft) S-SO 163 10 min 0,000 mm 714 W/m 19,0 C 28,4 C 11,3 km/h (2 Bft) 100 %
20.07.2016 10:50 28,8 C 28,4 C 28,8 C 51 % 1014,9 hPa 0,0 l/m 0,0 km/h (0 Bft) SO 129 10 min 0,000 mm 712 W/m 17,6 C 28,8 C 1,6 km/h (1 Bft) 100 %
20.07.2016 11:00 28,8 C 28,8 C 28,8 C 54 % 1014,9 hPa 0,0 l/m 2,1 km/h (1 Bft) SO 141 10 min 0,432 mm 731 W/m 18,5 C 28,8 C 14,5 km/h (3 Bft) 100 %
20.07.2016 11:10 29,0 C 28,8 C 29,0 C 53 % 1014,8 hPa 0,0 l/m 1,1 km/h (1 Bft) SO 139 10 min 0,000 mm 742 W/m 18,4 C 29,0 C 12,9 km/h (3 Bft) 100 %
20.07.2016 11:20 29,6 C 29,0 C 29,6 C 51 % 1014,7 hPa 0,0 l/m 0,7 km/h (0 Bft) S 182 10 min 0,000 mm 740 W/m 18,4 C 29,6 C 11,3 km/h (2 Bft) 100 %
20.07.2016 11:30 29,9 C 29,6 C 29,9 C 53 % 1014,6 hPa 0,0 l/m 5,9 km/h (2 Bft) S 171 10 min 0,000 mm 779 W/m 19,3 C 29,9 C 17,7 km/h (3 Bft) 100 %
20.07.2016 11:40 29,8 C 29,8 C 30,0 C 48 % 1014,5 hPa 0,0 l/m 5,6 km/h (1 Bft) SO 129 10 min 0,000 mm 791 W/m 17,6 C 29,8 C 16,1 km/h (3 Bft) 100 %
20.07.2016 11:50 29,8 C 29,8 C 29,8 C 52 % 1014,5 hPa 0,0 l/m 2,1 km/h (1 Bft) S-SW 200 10 min 0,000 mm 809 W/m 18,9 C 29,8 C 11,3 km/h (2 Bft) 100 %
20.07.2016 12:00 30,3 C 29,8 C 30,3 C 50 % 1014,4 hPa 0,0 l/m 0,8 km/h (0 Bft) S-SO 156 10 min 0,533 mm 791 W/m 18,7 C 30,3 C 16,1 km/h (3 Bft) 100 %
20.07.2016 12:10 30,7 C 30,3 C 30,7 C 49 % 1014,3 hPa 0,0 l/m 0,9 km/h (0 Bft) SO 146 10 min 0,000 mm 849 W/m 18,7 C 30,7 C 11,3 km/h (2 Bft) 100 %
20.07.2016 12:20 30,9 C 30,7 C 30,9 C 47 % 1014,3 hPa 0,0 l/m 1,2 km/h (1 Bft) SO 127 10 min 0,000 mm 803 W/m 18,2 C 30,9 C 12,9 km/h (3 Bft) 100 %
20.07.2016 12:30 31,0 C 30,9 C 31,0 C 46 % 1014,2 hPa 0,0 l/m 2,0 km/h (1 Bft) SO 127 10 min 0,000 mm 847 W/m 18,0 C 31,0 C 17,7 km/h (3 Bft) 100 %
20.07.2016 12:40 31,0 C 31,0 C 31,1 C 45 % 1014,1 hPa 0,0 l/m 3,4 km/h (1 Bft) O 88 10 min 0,000 mm 851 W/m 17,6 C 31,0 C 16,1 km/h (3 Bft) 100 %
20.07.2016 12:50 31,2 C 31,0 C 31,2 C 50 % 1014,1 hPa 0,0 l/m 1,1 km/h (1 Bft) S-SW 206 10 min 0,000 mm 891 W/m 19,5 C 31,2 C 9,7 km/h (2 Bft) 100 %
20.07.2016 13:00 31,7 C 31,2 C 31,7 C 45 % 1013,9 hPa 0,0 l/m 1,7 km/h (1 Bft) O-NO 61 10 min 0,584 mm 893 W/m 18,3 C 31,7 C 16,1 km/h (3 Bft) 100 %
20.07.2016 13:10 31,8 C 31,7 C 31,9 C 46 % 1013,8 hPa 0,0 l/m 1,6 km/h (1 Bft) S 186 10 min 0,000 mm 863 W/m 18,7 C 31,8 C 11,3 km/h (2 Bft) 100 %
20.07.2016 13:20 31,7 C 31,7 C 31,8 C 44 % 1013,8 hPa 0,0 l/m 0,9 km/h (0 Bft) O-SO 113 10 min 0,000 mm 849 W/m 17,9 C 31,7 C 8,0 km/h (2 Bft) 100 %
20.07.2016 13:30 31,8 C 31,6 C 31,8 C 45 % 1013,6 hPa 0,0 l/m 8,1 km/h (2 Bft) SO 144 10 min 0,000 mm 879 W/m 18,4 C 31,7 C 17,7 km/h (3 Bft) 100 %
20.07.2016 13:40 31,8 C 31,8 C 31,9 C 45 % 1013,6 hPa 0,0 l/m 9,4 km/h (2 Bft) S 178 10 min 0,000 mm 889 W/m 18,4 C 31,7 C 20,9 km/h (4 Bft) 100 %
20.07.2016 13:50 31,9 C 31,7 C 31,9 C 46 % 1013,6 hPa 0,0 l/m 7,5 km/h (2 Bft) S-SW 198 10 min 0,000 mm 889 W/m 18,8 C 31,9 C 17,7 km/h (3 Bft) 100 %
20.07.2016 14:00 32,3 C 31,9 C 32,3 C 47 % 1013,4 hPa 0,0 l/m 7,6 km/h (2 Bft) S-SW 208 10 min 0,661 mm 886 W/m 19,5 C 32,3 C 17,7 km/h (3 Bft) 100 %
20.07.2016 14:10 32,6 C 32,3 C 32,6 C 43 % 1013,3 hPa 0,0 l/m 8,9 km/h (2 Bft) S-SW 200 10 min 0,000 mm 888 W/m 18,4 C 32,6 C 17,7 km/h (3 Bft) 100 %
20.07.2016 14:20 32,5 C 32,5 C 32,6 C 44 % 1013,4 hPa 0,0 l/m 5,1 km/h (1 Bft) S 189 10 min 0,000 mm 882 W/m 18,6 C 32,5 C 17,7 km/h (3 Bft) 100 %
20.07.2016 14:30 32,7 C 32,5 C 32,7 C 44 % 1013,1 hPa 0,0 l/m 3,5 km/h (1 Bft) SW 236 10 min 0,000 mm 865 W/m 18,8 C 32,7 C 11,3 km/h (2 Bft) 100 %
20.07.2016 14:40 32,9 C 32,7 C 32,9 C 44 % 1013,1 hPa 0,0 l/m 8,8 km/h (2 Bft) S-SW 198 10 min 0,000 mm 863 W/m 19,0 C 32,9 C 20,9 km/h (4 Bft) 99 %
20.07.2016 14:50 33,2 C 32,9 C 33,2 C 42 % 1012,9 hPa 0,0 l/m 5,2 km/h (1 Bft) S-SW 202 10 min 0,000 mm 846 W/m 18,5 C 33,2 C 19,3 km/h (3 Bft) 99 %
20.07.2016 15:00 32,9 C 32,9 C 33,2 C 41 % 1012,9 hPa 0,0 l/m 7,9 km/h (2 Bft) SO 132 10 min 0,660 mm 835 W/m 17,9 C 32,9 C 19,3 km/h (3 Bft) 100 %
20.07.2016 15:10 32,9 C 32,9 C 33,0 C 42 % 1012,9 hPa 0,0 l/m 3,8 km/h (1 Bft) S-SO 148 10 min 0,000 mm 807 W/m 18,3 C 32,9 C 14,5 km/h (3 Bft) 100 %
20.07.2016 15:20 32,9 C 32,8 C 32,9 C 43 % 1012,8 hPa 0,0 l/m 0,8 km/h (0 Bft) S-SW 209 10 min 0,000 mm 751 W/m 18,6 C 32,9 C 8,0 km/h (2 Bft) 100 %
20.07.2016 15:30 32,6 C 32,6 C 32,9 C 40 % 1012,7 hPa 0,0 l/m 5,1 km/h (1 Bft) O-SO 105 10 min 0,000 mm 703 W/m 17,2 C 32,6 C 17,7 km/h (3 Bft) 100 %
20.07.2016 15:40 32,7 C 32,6 C 32,7 C 40 % 1012,7 hPa 0,0 l/m 3,8 km/h (1 Bft) SO 139 0 min 0,000 mm 81 W/m 17,3 C 32,7 C 22,5 km/h (4 Bft) 100 %
20.07.2016 15:50 32,7 C 32,7 C 32,8 C 40 % 1012,6 hPa 0,0 l/m 4,7 km/h (1 Bft) S-SO 158 10 min 0,000 mm 206 W/m 17,3 C 32,7 C 20,9 km/h (4 Bft) 100 %
20.07.2016 16:00 32,7 C 32,6 C 32,7 C 39 % 1012,5 hPa 0,0 l/m 1,6 km/h (1 Bft) SO 142 10 min 0,000 mm 728 W/m 16,9 C 32,7 C 9,7 km/h (2 Bft) 100 %
20.07.2016 16:10 32,6 C 32,6 C 32,7 C 40 % 1012,4 hPa 0,0 l/m 2,2 km/h (1 Bft) O 95 10 min 0,381 mm 721 W/m 17,2 C 32,6 C 11,3 km/h (2 Bft) 100 %
20.07.2016 16:20 32,7 C 32,6 C 32,7 C 40 % 1012,2 hPa 0,0 l/m 1,1 km/h (1 Bft) SO 131 10 min 0,000 mm 466 W/m 17,3 C 32,7 C 12,9 km/h (3 Bft) 100 %
20.07.2016 16:30 32,8 C 32,7 C 32,8 C 42 % 1012,1 hPa 0,0 l/m 2,2 km/h (1 Bft) S-SW 202 10 min 0,000 mm 162 W/m 18,2 C 32,8 C 16,1 km/h (3 Bft) 100 %
20.07.2016 16:40 33,0 C 32,8 C 33,0 C 40 % 1012,1 hPa 0,0 l/m 2,4 km/h (1 Bft) SW 228 10 min 0,000 mm 214 W/m 17,6 C 33,0 C 9,7 km/h (2 Bft) 100 %
20.07.2016 16:50 32,9 C 32,9 C 33,1 C 39 % 1012,0 hPa 0,0 l/m 2,4 km/h (1 Bft) S 169 0 min 0,000 mm 95 W/m 17,1 C 32,9 C 11,3 km/h (2 Bft) 98 %
20.07.2016 17:00 32,9 C 32,9 C 33,0 C 39 % 1012,0 hPa 0,0 l/m 0,7 km/h (0 Bft) S 171 0 min 0,254 mm 63 W/m 17,1 C 32,9 C 8,0 km/h (2 Bft) 97 %
20.07.2016 17:10 33,0 C 32,9 C 33,0 C 40 % 1012,0 hPa 0,0 l/m 3,4 km/h (1 Bft) S-SW 201 0 min 0,000 mm 62 W/m 17,6 C 33,0 C 16,1 km/h (3 Bft) 98 %
20.07.2016 17:20 33,1 C 33,0 C 33,1 C 40 % 1011,8 hPa 0,0 l/m 1,7 km/h (1 Bft) W-SW 245 0 min 0,000 mm 62 W/m 17,7 C 33,1 C 9,7 km/h (2 Bft) 97 %
20.07.2016 17:30 33,2 C 33,1 C 33,3 C 40 % 1011,8 hPa 0,0 l/m 0,9 km/h (0 Bft) SW 232 0 min 0,000 mm 62 W/m 17,7 C 33,2 C 9,7 km/h (2 Bft) 97 %
20.07.2016 17:40 33,2 C 33,2 C 33,3 C 41 % 1011,6 hPa 0,0 l/m 0,0 km/h (0 Bft) S-SW 202 0 min 0,000 mm 60 W/m 18,1 C 33,2 C 0,0 km/h (0 Bft) 97 %
20.07.2016 17:50 32,9 C 32,9 C 33,2 C 39 % 1011,6 hPa 0,0 l/m 1,5 km/h (1 Bft) SO 125 0 min 0,000 mm 60 W/m 17,1 C 32,9 C 8,0 km/h (2 Bft) 97 %
20.07.2016 18:00 32,8 C 32,8 C 32,9 C 42 % 1011,6 hPa 0,0 l/m 0,1 km/h (0 Bft) S-SO 149 0 min 0,076 mm 58 W/m 18,2 C 32,8 C 6,4 km/h (2 Bft) 98 %
20.07.2016 18:10 32,6 C 32,6 C 32,8 C 38 % 1011,5 hPa 0,0 l/m 0,3 km/h (0 Bft) S-SO 158 0 min 0,000 mm 56 W/m 16,4 C 32,6 C 4,8 km/h (1 Bft) 97 %
20.07.2016 18:20 32,6 C 32,6 C 32,6 C 43 % 1011,4 hPa 0,0 l/m 0,0 km/h (0 Bft) S-SO 158 0 min 0,000 mm 54 W/m 18,4 C 32,6 C 0,0 km/h (0 Bft) 97 %
20.07.2016 18:30 32,6 C 32,6 C 32,6 C 39 % 1011,3 hPa 0,0 l/m 0,0 km/h (0 Bft) S-SO 158 0 min 0,000 mm 54 W/m 16,8 C 32,6 C 0,0 km/h (0 Bft) 97 %
20.07.2016 18:40 32,5 C 32,5 C 32,6 C 43 % 1011,3 hPa 0,0 l/m 0,0 km/h (0 Bft) S-SO 158 0 min 0,000 mm 54 W/m 18,3 C 32,5 C 0,0 km/h (0 Bft) 97 %
20.07.2016 18:50 32,2 C 32,2 C 32,5 C 41 % 1011,3 hPa 0,0 l/m 0,0 km/h (0 Bft) S-SO 158 0 min 0,000 mm 53 W/m 17,2 C 32,2 C 0,0 km/h (0 Bft) 98 %
20.07.2016 19:00 31,9 C 31,9 C 32,2 C 44 % 1011,3 hPa 0,0 l/m 0,0 km/h (0 Bft) S-SO 160 0 min 0,051 mm 51 W/m 18,1 C 31,9 C 0,0 km/h (0 Bft) 97 %
20.07.2016 19:10 31,6 C 31,6 C 31,9 C 42 % 1011,3 hPa 0,0 l/m 0,0 km/h (0 Bft) S-SO 160 0 min 0,000 mm 49 W/m 17,1 C 31,6 C 1,6 km/h (1 Bft) 98 %
20.07.2016 19:20 31,5 C 31,5 C 31,6 C 46 % 1011,2 hPa 0,0 l/m 0,0 km/h (0 Bft) S-SO 159 0 min 0,000 mm 47 W/m 18,4 C 31,5 C 1,6 km/h (1 Bft) 97 %
20.07.2016 19:30 31,1 C 31,1 C 31,5 C 46 % 1011,1 hPa 0,0 l/m 0,0 km/h (0 Bft) S-SO 159 0 min 0,000 mm 128 W/m 18,1 C 31,1 C 0,0 km/h (0 Bft) 97 %
20.07.2016 19:40 30,8 C 30,8 C 31,1 C 48 % 1011,1 hPa 0,0 l/m 0,0 km/h (0 Bft) S-SO 159 0 min 0,000 mm 40 W/m 18,5 C 30,8 C 0,0 km/h (0 Bft) 98 %
20.07.2016 19:50 30,2 C 30,2 C 30,8 C 47 % 1011,1 hPa 0,0 l/m 0,0 km/h (0 Bft) S-SO 159 0 min 0,000 mm 33 W/m 17,6 C 30,2 C 0,0 km/h (0 Bft) 97 %
20.07.2016 20:00 29,7 C 29,7 C 30,2 C 49 % 1011,0 hPa 0,0 l/m 0,0 km/h (0 Bft) S-SO 159 0 min 0,051 mm 28 W/m 17,8 C 29,7 C 0,0 km/h (0 Bft) 97 %
20.07.2016 20:10 29,2 C 29,2 C 29,7 C 50 % 1011,0 hPa 0,0 l/m 0,0 km/h (0 Bft) S-SO 159 0 min 0,000 mm 23 W/m 17,7 C 29,2 C 1,6 km/h (1 Bft) 97 %
20.07.2016 20:20 28,7 C 28,7 C 29,2 C 50 % 1011,1 hPa 0,0 l/m 0,0 km/h (0 Bft) S-SO 159 0 min 0,000 mm 21 W/m 17,2 C 28,7 C 0,0 km/h (0 Bft) 98 %
20.07.2016 20:30 28,3 C 28,3 C 28,7 C 50 % 1011,1 hPa 0,0 l/m 0,0 km/h (0 Bft) S-SO 159 0 min 0,000 mm 16 W/m 16,9 C 28,3 C 0,0 km/h (0 Bft) 97 %
20.07.2016 20:40 28,0 C 28,0 C 28,3 C 55 % 1011,2 hPa 0,0 l/m 0,0 km/h (0 Bft) S-SO 159 0 min 0,000 mm 16 W/m 18,1 C 28,0 C 0,0 km/h (0 Bft) 97 %
20.07.2016 20:50 27,6 C 27,6 C 28,0 C 57 % 1011,2 hPa 0,0 l/m 0,0 km/h (0 Bft) S-SO 159 0 min 0,000 mm 12 W/m 18,3 C 27,6 C 0,0 km/h (0 Bft) 97 %
20.07.2016 21:00 27,2 C 27,2 C 27,6 C 58 % 1011,3 hPa 0,0 l/m 0,0 km/h (0 Bft) S-SO 159 0 min 0,025 mm 7 W/m 18,2 C 27,2 C 0,0 km/h (0 Bft) 97 %
20.07.2016 21:10 26,7 C 26,7 C 27,2 C 59 % 1011,1 hPa 0,0 l/m 0,0 km/h (0 Bft) N 0 0 min 0,000 mm 7 W/m 18,0 C 26,7 C 0,0 km/h (0 Bft) 100 %
20.07.2016 21:20 26,4 C 26,4 C 26,7 C 60 % 1011,2 hPa 0,0 l/m 0,0 km/h (0 Bft) N 0 0 min 0,000 mm 0 W/m 18,0 C 26,4 C 0,0 km/h (0 Bft) 100 %
20.07.2016 21:30 26,1 C 26,1 C 26,4 C 61 % 1011,3 hPa 0,0 l/m 0,0 km/h (0 Bft) N 0 0 min 0,000 mm 0 W/m 18,0 C 26,1 C 0,0 km/h (0 Bft) 100 %
20.07.2016 21:40 25,8 C 25,8 C 26,1 C 59 % 1011,4 hPa 0,0 l/m 0,0 km/h (0 Bft) N 0 0 min 0,000 mm 0 W/m 17,2 C 25,8 C 0,0 km/h (0 Bft) 100 %
20.07.2016 21:50 25,4 C 25,4 C 25,8 C 59 % 1011,5 hPa 0,0 l/m 0,0 km/h (0 Bft) N 0 0 min 0,000 mm 0 W/m 16,8 C 25,4 C 0,0 km/h (0 Bft) 100 %
20.07.2016 22:00 25,2 C 25,2 C 25,4 C 63 % 1011,6 hPa 0,0 l/m 0,0 km/h (0 Bft) S-SO 157 0 min 0,000 mm 0 W/m 17,6 C 25,2 C 4,8 km/h (1 Bft) 100 %
20.07.2016 22:10 24,7 C 24,7 C 25,2 C 68 % 1011,5 hPa 0,0 l/m 0,0 km/h (0 Bft) O-SO 112 0 min 0,000 mm 0 W/m 18,4 C 24,7 C 6,4 km/h (2 Bft) 100 %
20.07.2016 22:20 24,5 C 24,5 C 24,7 C 68 % 1011,4 hPa 0,0 l/m 0,0 km/h (0 Bft) O-SO 112 0 min 0,000 mm 0 W/m 18,2 C 24,5 C 4,8 km/h (1 Bft) 100 %
20.07.2016 22:30 24,4 C 24,4 C 24,5 C 70 % 1011,4 hPa 0,0 l/m 0,0 km/h (0 Bft) O-SO 112 0 min 0,000 mm 0 W/m 18,6 C 24,4 C 1,6 km/h (1 Bft) 100 %
20.07.2016 22:40 23,9 C 23,9 C 24,4 C 69 % 1011,4 hPa 0,0 l/m 0,0 km/h (0 Bft) O-SO 112 0 min 0,000 mm 0 W/m 17,9 C 23,9 C 1,6 km/h (1 Bft) 100 %
20.07.2016 22:50 23,7 C 23,7 C 23,9 C 71 % 1011,5 hPa 0,0 l/m 0,0 km/h (0 Bft) N 0 0 min 0,000 mm 0 W/m 18,1 C 23,7 C 0,0 km/h (0 Bft) 100 %
20.07.2016 23:00 23,3 C 23,3 C 23,7 C 70 % 1011,5 hPa 0,0 l/m 0,0 km/h (0 Bft) N 0 0 min 0,025 mm 0 W/m 17,5 C 23,3 C 0,0 km/h (0 Bft) 100 %
20.07.2016 23:10 23,0 C 23,0 C 23,3 C 71 % 1011,6 hPa 0,0 l/m 0,0 km/h (0 Bft) N 0 0 min 0,000 mm 0 W/m 17,4 C 23,0 C 0,0 km/h (0 Bft) 100 %
20.07.2016 23:20 22,8 C 22,8 C 23,0 C 72 % 1011,5 hPa 0,0 l/m 0,0 km/h (0 Bft) N 0 0 min 0,000 mm 0 W/m 17,5 C 22,8 C 0,0 km/h (0 Bft) 100 %
20.07.2016 23:30 22,5 C 22,5 C 22,8 C 72 % 1011,4 hPa 0,0 l/m 0,0 km/h (0 Bft) N 0 0 min 0,000 mm 0 W/m 17,2 C 22,5 C 0,0 km/h (0 Bft) 100 %
20.07.2016 23:40 22,3 C 22,3 C 22,5 C 74 % 1011,3 hPa 0,0 l/m 0,0 km/h (0 Bft) N 0 0 min 0,000 mm 0 W/m 17,4 C 22,3 C 0,0 km/h (0 Bft) 100 %
20.07.2016 23:50 22,1 C 22,0 C 22,3 C 73 % 1011,3 hPa 0,0 l/m 0,0 km/h (0 Bft) N 0 0 min 0,000 mm 0 W/m 17,0 C 22,1 C 0,0 km/h (0 Bft) 100 %
_ Min-Zeit 06:20 06:20 06:40 18:10 20:00 - 00:00 - - - - - 06:20 06:20 03:40 05:10
Minimum _ 15,4 C 15,4 C 15,4 C 38 % 1011,0 hPa - 0,0 km/h (0 Bft) - - - - - 13,2 C 15,4 C 0,0 km/h (0 Bft) 88 %
_ Max-Zeit 17:30 17:40 17:30 07:20 00:00 00:00 13:40 - - 08:20 14:00 13:00 14:00 14:50 15:40 00:00
Maximum _ 33,3 C 33,2 C 33,3 C 88 % 1016,8 hPa 0,0 l/m 9,4 km/h
S (2 Bft)
- - 10 min 0,661 mm 893 W/m 19,5 C 33,2 C 22,5 km/h
S-SW (4 Bft)
100 %
Durchschnitt _ 25,0 C 24,8 C 25,1 C 63 % 1014,0 hPa #0,0 l/m 1,0 km/h (0 Bft) SO - #8:20 h #4,368 mm 387 W/m 16,6 C 25,0 C 5,6 km/h (1 Bft) 99 %
PRIVATE WETTERSTATION BILLIGHEIM-ALLFELD - www.neckar-odenwald-wetter.de - Holger Sonntag